Time;durP1;ratioP1;P1;durP2;ratioP2;P2;SDS_P1;SDS_P2;PMS_P1;PMS_P2;Temp;Humidity;BMP_temperature;BMP_pressure;BME280_temperature;BME280_humidity;BME280_pressure;Samples;Min_cycle;Max_cycle;Signal;HPM_P1;HPM_P2
2022/02/15 00:00:08;;;;;;;3.90;1.40;;;6.70;85.50;;;;;;5121150;27;19964;-68
2022/02/15 00:02:39;;;;;;;5.38;1.48;;;6.80;85.50;;;;;;5119999;27;20108;-68
2022/02/15 00:05:07;;;;;;;3.80;1.63;;;6.80;85.40;;;;;;5119420;27;20087;-68
2022/02/15 00:07:40;;;;;;;6.38;1.85;;;6.80;85.60;;;;;;5123659;27;20043;-68
2022/02/15 00:10:08;;;;;;;2.78;1.35;;;6.80;85.60;;;;;;5106483;27;20470;-67
2022/02/15 00:12:35;;;;;;;4.93;1.95;;;6.80;85.50;;;;;;5108175;27;20039;-68
2022/02/15 00:15:08;;;;;;;7.75;2.58;;;6.80;85.60;;;;;;5125923;27;20496;-68
2022/02/15 00:17:36;;;;;;;3.75;1.70;;;6.80;85.70;;;;;;5125301;27;20043;-68
2022/02/15 00:20:05;;;;;;;3.97;2.08;;;6.80;85.80;;;;;;5105573;27;20124;-68
2022/02/15 00:22:34;;;;;;;5.32;2.25;;;6.80;85.80;;;;;;5122886;27;20317;-67
2022/02/15 00:25:02;;;;;;;9.55;3.53;;;6.80;85.80;;;;;;5126870;27;20473;-67
2022/02/15 00:27:31;;;;;;;5.68;2.05;;;6.90;85.90;;;;;;5126762;27;20107;-69
2022/02/15 00:29:58;;;;;;;4.13;1.58;;;6.90;85.90;;;;;;5121679;27;20092;-69
2022/02/15 00:32:28;;;;;;;6.22;2.88;;;6.90;86.00;;;;;;5122537;27;20059;-68
2022/02/15 00:34:58;;;;;;;3.35;1.77;;;6.90;86.00;;;;;;5118575;27;20043;-69
2022/02/15 00:37:25;;;;;;;6.00;1.83;;;6.90;85.90;;;;;;5106911;27;20058;-68
2022/02/15 00:39:53;;;;;;;7.05;1.70;;;6.90;86.00;;;;;;5129958;27;20500;-68
2022/02/15 00:42:20;;;;;;;4.15;1.48;;;6.90;86.00;;;;;;5137414;27;20054;-68
2022/02/15 00:44:47;;;;;;;3.65;1.63;;;6.90;86.00;;;;;;5138912;27;20484;-68
2022/02/15 00:47:15;;;;;;;5.90;1.95;;;6.90;86.00;;;;;;5114661;27;20046;-68
2022/02/15 00:49:44;;;;;;;4.22;1.83;;;6.90;85.90;;;;;;5104186;27;20050;-68
2022/02/15 00:52:12;;;;;;;5.95;1.60;;;6.90;86.00;;;;;;5122908;27;20043;-71
2022/02/15 00:54:39;;;;;;;5.25;1.70;;;6.90;86.00;;;;;;5123684;27;20613;-67
2022/02/15 00:57:07;;;;;;;3.08;1.60;;;6.90;86.10;;;;;;5120937;27;20047;-69
2022/02/15 00:59:34;;;;;;;5.00;2.10;;;6.90;86.10;;;;;;5105406;27;20198;-69
2022/02/15 01:02:01;;;;;;;4.88;2.17;;;6.90;86.00;;;;;;5109008;27;20074;-68
2022/02/15 01:04:28;;;;;;;4.93;1.77;;;6.90;86.10;;;;;;5125914;27;20035;-68
2022/02/15 01:06:57;;;;;;;3.22;1.73;;;6.90;86.20;;;;;;5127024;27;20499;-68
2022/02/15 01:09:26;;;;;;;2.50;1.48;;;6.90;86.20;;;;;;5125159;27;20061;-69
2022/02/15 01:11:56;;;;;;;2.60;1.33;;;6.90;86.30;;;;;;5105400;27;20050;-68
2022/02/15 01:14:23;;;;;;;3.17;1.50;;;6.90;86.30;;;;;;5122888;27;20081;-67
2022/02/15 01:16:53;;;;;;;6.55;1.88;;;6.90;86.20;;;;;;5123717;27;20070;-68
2022/02/15 01:19:21;;;;;;;5.80;1.98;;;6.90;86.20;;;;;;5099009;27;20361;-68
2022/02/15 01:21:48;;;;;;;4.35;2.42;;;6.90;86.30;;;;;;5122130;27;20470;-69
2022/02/15 01:24:17;;;;;;;6.00;1.90;;;6.90;86.30;;;;;;5124970;27;20040;-68
2022/02/15 01:26:44;;;;;;;5.13;1.90;;;7.00;86.30;;;;;;5127047;27;20044;-68
2022/02/15 01:29:16;;;;;;;4.68;1.65;;;7.00;86.40;;;;;;5112518;27;20059;-68
2022/02/15 01:31:47;;;;;;;4.28;2.03;;;7.00;86.40;;;;;;5106472;27;20046;-68
2022/02/15 01:34:14;;;;;;;6.38;2.05;;;7.00;86.40;;;;;;5121019;27;20047;-68
2022/02/15 01:36:42;;;;;;;4.55;2.00;;;7.00;86.50;;;;;;5124929;27;20039;-67
2022/02/15 01:39:14;;;;;;;5.13;2.22;;;7.00;86.60;;;;;;5115642;27;20523;-68
2022/02/15 01:41:43;;;;;;;6.75;2.00;;;7.00;86.60;;;;;;5110304;27;20047;-68
2022/02/15 01:44:11;;;;;;;6.03;1.95;;;7.00;86.60;;;;;;5110776;27;20058;-69
2022/02/15 01:46:39;;;;;;;6.95;2.60;;;7.00;86.60;;;;;;5106179;27;20126;-68
2022/02/15 01:49:06;;;;;;;4.60;2.65;;;7.00;86.70;;;;;;5124062;27;20039;-68
2022/02/15 01:51:35;;;;;;;5.70;2.58;;;7.00;86.60;;;;;;5121297;27;20054;-67
2022/02/15 01:54:02;;;;;;;4.13;2.10;;;7.00;86.60;;;;;;5111303;27;20055;-69
2022/02/15 01:56:31;;;;;;;6.25;2.78;;;7.10;86.60;;;;;;5122713;27;20051;-67
2022/02/15 01:59:03;;;;;;;5.03;2.28;;;7.00;86.70;;;;;;5105251;27;20092;-67
2022/02/15 02:01:32;;;;;;;6.43;2.60;;;7.10;86.60;;;;;;5103466;27;20132;-68
2022/02/15 02:07:05;;;;;;;3.85;2.30;;;7.10;86.70;;;;;;5112131;27;20680;-69
2022/02/15 02:09:38;;;;;;;6.65;3.25;;;7.10;86.70;;;;;;5109399;27;20055;-68
2022/02/15 02:12:06;;;;;;;5.53;2.40;;;7.10;86.60;;;;;;5125925;27;20050;-69
2022/02/15 02:14:43;;;;;;;5.93;2.25;;;7.10;86.70;;;;;;5096347;27;20141;-68
2022/02/15 02:17:10;;;;;;;4.93;2.47;;;7.10;86.70;;;;;;5106977;27;20093;-68
2022/02/15 02:19:37;;;;;;;6.35;2.25;;;7.10;86.80;;;;;;5108974;27;20067;-67
2022/02/15 02:22:06;;;;;;;5.25;2.72;;;7.10;86.80;;;;;;5113338;27;20146;-68
2022/02/15 02:24:34;;;;;;;5.82;2.47;;;7.10;86.70;;;;;;5105886;27;20134;-68
2022/02/15 02:27:01;;;;;;;6.07;2.78;;;7.10;86.80;;;;;;5102490;27;20086;-68
2022/02/15 02:29:28;;;;;;;4.75;2.03;;;7.10;86.80;;;;;;5104952;27;20044;-68
2022/02/15 02:31:56;;;;;;;5.22;2.22;;;7.10;86.80;;;;;;5102000;27;20058;-69
2022/02/15 02:34:27;;;;;;;4.20;2.08;;;7.10;86.80;;;;;;5101542;27;20208;-68
2022/02/15 02:36:54;;;;;;;4.82;2.13;;;7.10;86.70;;;;;;5107485;27;20043;-68
2022/02/15 02:39:28;;;;;;;3.58;2.00;;;7.10;86.60;;;;;;5106107;27;20844;-67
2022/02/15 02:41:56;;;;;;;3.97;1.70;;;7.10;86.60;;;;;;5105583;27;20055;-68
2022/02/15 02:44:23;;;;;;;6.35;2.35;;;7.10;86.50;;;;;;5100381;27;20073;-69
2022/02/15 02:46:51;;;;;;;5.30;1.83;;;7.10;86.50;;;;;;5102179;27;20085;-68
2022/02/15 02:49:20;;;;;;;3.65;1.58;;;7.10;86.50;;;;;;5099761;27;20141;-68
2022/02/15 02:51:47;;;;;;;4.35;1.90;;;7.10;86.50;;;;;;5105112;27;20043;-67
2022/02/15 02:54:15;;;;;;;4.13;2.15;;;7.10;86.60;;;;;;5105003;27;20131;-67
2022/02/15 02:56:55;;;;;;;3.92;1.50;;;7.10;86.40;;;;;;5110004;27;20047;-67
2022/02/15 02:59:23;;;;;;;4.68;1.85;;;7.10;86.30;;;;;;5101541;27;20092;-69
2022/02/15 03:01:50;;;;;;;4.00;1.58;;;7.20;86.30;;;;;;5096391;27;20319;-68
2022/02/15 03:04:18;;;;;;;4.00;1.80;;;7.20;86.30;;;;;;5107361;27;20067;-68
2022/02/15 03:06:45;;;;;;;3.63;1.55;;;7.20;86.20;;;;;;5096562;27;20375;-67
2022/02/15 03:09:16;;;;;;;3.13;1.52;;;7.20;86.20;;;;;;5099273;27;20047;-68
2022/02/15 03:11:43;;;;;;;4.70;1.67;;;7.10;86.20;;;;;;5097565;27;20496;-68
2022/02/15 03:14:17;;;;;;;4.32;1.67;;;7.10;86.20;;;;;;5099309;27;20108;-67
2022/02/15 03:16:52;;;;;;;5.25;1.95;;;7.10;86.30;;;;;;5102928;27;20193;-69
2022/02/15 03:19:20;;;;;;;6.93;1.77;;;7.20;86.20;;;;;;5106406;27;20134;-67
2022/02/15 03:21:48;;;;;;;3.28;1.73;;;7.20;86.20;;;;;;5119213;27;20483;-69
2022/02/15 03:24:15;;;;;;;4.47;2.92;;;7.20;86.10;;;;;;5103861;27;20043;-68
2022/02/15 03:26:45;;;;;;;1.77;1.10;;;7.20;86.00;;;;;;5102520;27;20047;-68
2022/02/15 03:29:14;;;;;;;3.38;1.55;;;7.20;86.10;;;;;;5122198;27;20051;-67
2022/02/15 03:31:42;;;;;;;3.33;1.55;;;7.20;86.00;;;;;;5107435;27;20487;-68
2022/02/15 03:34:10;;;;;;;5.20;1.63;;;7.10;86.00;;;;;;5097993;27;20094;-68
2022/02/15 03:36:38;;;;;;;3.38;1.45;;;7.20;86.00;;;;;;5106778;27;20147;-67
2022/02/15 03:39:10;;;;;;;5.57;1.58;;;7.20;86.00;;;;;;5106673;27;20046;-69
2022/02/15 03:44:30;;;;;;;4.07;1.85;;;7.10;86.10;;;;;;5105260;27;20130;-69
2022/02/15 03:47:04;;;;;;;3.50;1.48;;;7.20;86.10;;;;;;5123078;27;20138;-68
2022/02/15 03:49:38;;;;;;;4.80;1.33;;;7.10;86.10;;;;;;5105762;27;20460;-67
2022/02/15 03:52:08;;;;;;;4.30;1.92;;;7.10;86.00;;;;;;5103471;27;20051;-69
2022/02/15 03:54:35;;;;;;;2.78;1.23;;;7.20;86.00;;;;;;5100263;27;20039;-67
2022/02/15 03:57:03;;;;;;;6.20;1.88;;;7.10;86.10;;;;;;5113325;27;20047;-68
2022/02/15 03:59:33;;;;;;;3.75;1.63;;;7.10;86.10;;;;;;5108218;27;20422;-67
2022/02/15 04:02:01;;;;;;;4.63;1.90;;;7.10;86.10;;;;;;5097132;27;20054;-68
2022/02/15 04:04:30;;;;;;;5.60;1.98;;;7.10;86.10;;;;;;5103853;27;20047;-68
2022/02/15 04:06:58;;;;;;;3.25;1.58;;;7.10;86.10;;;;;;5122451;27;21556;-69
2022/02/15 04:09:26;;;;;;;3.40;1.63;;;7.10;86.10;;;;;;5104253;27;20043;-68
2022/02/15 04:11:54;;;;;;;3.40;1.30;;;7.20;86.10;;;;;;5125886;27;20698;-68
2022/02/15 04:14:26;;;;;;;6.22;2.05;;;7.10;86.10;;;;;;5103638;27;20043;-68
2022/02/15 04:16:57;;;;;;;3.28;1.50;;;7.10;86.00;;;;;;5103711;27;20043;-68
2022/02/15 04:19:24;;;;;;;3.47;1.67;;;7.20;86.00;;;;;;5104449;27;20087;-68
2022/02/15 04:21:52;;;;;;;2.88;1.60;;;7.20;86.00;;;;;;5120764;27;20047;-68
2022/02/15 04:24:19;;;;;;;3.38;1.60;;;7.20;85.90;;;;;;5100107;27;20047;-70
2022/02/15 04:26:47;;;;;;;6.13;2.25;;;7.20;85.80;;;;;;5121447;27;20047;-68
2022/02/15 04:29:17;;;;;;;4.82;1.88;;;7.20;85.70;;;;;;5103690;27;20058;-67
2022/02/15 04:31:56;;;;;;;3.72;1.80;;;7.20;85.60;;;;;;5114724;27;20834;-68
2022/02/15 04:34:26;;;;;;;6.97;2.20;;;7.20;85.60;;;;;;5101383;27;20070;-69
2022/02/15 04:36:53;;;;;;;4.13;1.90;;;7.20;85.50;;;;;;5106567;27;20124;-68
2022/02/15 04:39:21;;;;;;;6.40;2.00;;;7.20;85.50;;;;;;5102780;27;20927;-67
2022/02/15 04:42:01;;;;;;;3.90;1.90;;;7.20;85.50;;;;;;5098678;27;20043;-68
2022/02/15 04:44:30;;;;;;;7.03;1.77;;;7.20;85.40;;;;;;5099152;27;20096;-67
2022/02/15 04:46:59;;;;;;;5.38;2.50;;;7.20;85.40;;;;;;5098602;27;20050;-68
2022/02/15 04:49:32;;;;;;;7.00;2.25;;;7.20;85.30;;;;;;5098495;27;20043;-68
2022/02/15 04:52:02;;;;;;;3.22;1.60;;;7.20;85.30;;;;;;5107679;27;20089;-68
2022/02/15 04:54:32;;;;;;;3.75;1.58;;;7.20;85.30;;;;;;5109506;27;20549;-69
2022/02/15 04:56:59;;;;;;;4.25;2.15;;;7.20;85.30;;;;;;5122701;27;20608;-68
2022/02/15 04:59:30;;;;;;;4.03;1.80;;;7.20;85.30;;;;;;5107131;27;20670;-68
2022/02/15 05:01:58;;;;;;;4.32;1.80;;;7.20;85.20;;;;;;5103851;27;20042;-70
2022/02/15 05:07:06;;;;;;;6.47;1.90;;;7.20;85.20;;;;;;5082890;27;20083;-68
2022/02/15 05:09:42;;;;;;;6.13;2.22;;;7.20;85.10;;;;;;5103449;27;20074;-68
2022/02/15 05:12:14;;;;;;;5.00;1.52;;;7.20;85.20;;;;;;5104226;27;20042;-67
2022/02/15 05:14:43;;;;;;;4.30;1.83;;;7.20;85.10;;;;;;5099278;27;20135;-68
2022/02/15 05:17:15;;;;;;;3.08;1.42;;;7.20;85.20;;;;;;5105359;27;20189;-68
2022/02/15 05:19:47;;;;;;;2.95;1.50;;;7.20;85.10;;;;;;5091099;27;20524;-68
2022/02/15 05:22:15;;;;;;;4.45;1.45;;;7.20;85.10;;;;;;5105093;27;20074;-68
2022/02/15 05:24:53;;;;;;;3.72;2.15;;;7.20;85.10;;;;;;5100342;27;20175;-68
2022/02/15 05:27:23;;;;;;;3.65;1.70;;;7.20;85.10;;;;;;5100502;27;20116;-68
2022/02/15 05:29:54;;;;;;;;;;;7.20;85.10;;;;;;5107209;27;20051;-69
2022/02/15 05:32:28;;;;;;;2.92;1.27;;;7.20;85.10;;;;;;5117746;27;19927;-68
2022/02/15 05:34:59;;;;;;;4.15;1.75;;;7.20;85.10;;;;;;5116123;27;20047;-68
2022/02/15 05:37:26;;;;;;;4.28;1.75;;;7.20;85.10;;;;;;5121376;27;20050;-70
2022/02/15 05:39:54;;;;;;;10.05;1.77;;;7.20;85.10;;;;;;5101558;27;20048;-67
2022/02/15 05:42:37;;;;;;;3.33;1.60;;;7.20;85.10;;;;;;5097119;27;20127;-68
2022/02/15 05:45:06;;;;;;;2.72;1.27;;;7.20;85.10;;;;;;5117140;27;20058;-68
2022/02/15 05:47:36;;;;;;;3.30;1.67;;;7.20;85.10;;;;;;5110531;27;20052;-73
2022/02/15 05:52:48;;;;;;;6.82;2.10;;;7.20;85.00;;;;;;5105684;27;20069;-68
2022/02/15 05:55:17;;;;;;;3.80;2.03;;;7.20;85.00;;;;;;5111204;27;20060;-68
2022/02/15 05:57:45;;;;;;;5.55;1.90;;;7.20;85.00;;;;;;5112295;27;20095;-68
2022/02/15 06:00:15;;;;;;;7.95;2.42;;;7.20;85.00;;;;;;5101643;27;20043;-68
2022/02/15 06:02:46;;;;;;;4.15;1.55;;;7.30;85.00;;;;;;5126339;27;20059;-68
2022/02/15 06:05:18;;;;;;;3.78;1.65;;;7.30;85.00;;;;;;5110304;27;20152;-71
2022/02/15 06:07:54;;;;;;;5.07;1.98;;;7.20;85.00;;;;;;5119851;27;20038;-67
2022/02/15 06:10:26;;;;;;;7.55;2.70;;;7.20;84.90;;;;;;5120979;27;20111;-68
2022/02/15 06:12:55;;;;;;;6.30;2.00;;;7.20;84.90;;;;;;5103789;27;21595;-67
2022/02/15 06:15:28;;;;;;;3.55;1.58;;;7.20;85.00;;;;;;5104840;27;20055;-69
2022/02/15 06:18:15;;;;;;;6.07;1.75;;;7.20;85.00;;;;;;5109975;27;20126;-69
2022/02/15 06:20:48;;;;;;;3.72;1.67;;;7.30;85.00;;;;;;5100307;27;20042;-69
2022/02/15 06:23:22;;;;;;;4.07;1.65;;;7.20;85.00;;;;;;5107735;27;20209;-67
2022/02/15 06:25:53;;;;;;;6.47;2.03;;;7.20;85.10;;;;;;5102566;27;20039;-67
2022/02/15 06:28:22;;;;;;;5.57;1.70;;;7.20;85.10;;;;;;5119569;27;20039;-68
2022/02/15 06:31:04;;;;;;;4.07;1.67;;;7.20;85.10;;;;;;5104827;27;20034;-68
2022/02/15 06:33:35;;;;;;;4.22;2.38;;;7.30;85.10;;;;;;5096919;27;20051;-69
2022/02/15 06:36:04;;;;;;;4.25;2.13;;;7.20;85.00;;;;;;5090748;27;20055;-69
2022/02/15 06:38:35;;;;;;;4.80;2.03;;;7.30;85.00;;;;;;5114141;27;20138;-68
2022/02/15 06:41:11;;;;;;;4.05;1.90;;;7.30;85.00;;;;;;5097536;27;20040;-68
2022/02/15 06:43:51;;;;;;;;;;;7.30;85.10;;;;;;5113907;27;20040;-68
2022/02/15 06:46:20;;;;;;;3.83;2.10;;;7.30;85.10;;;;;;5108992;27;19927;-68
2022/02/15 06:48:49;;;;;;;6.32;2.30;;;7.30;85.10;;;;;;5109063;27;20407;-67
2022/02/15 06:51:20;;;;;;;7.38;2.40;;;7.30;85.10;;;;;;5112689;27;20040;-68
2022/02/15 06:53:57;;;;;;;5.80;2.03;;;7.20;85.00;;;;;;5115153;27;20052;-69
2022/02/15 06:56:32;;;;;;;5.07;2.65;;;7.30;85.10;;;;;;5125161;27;20051;-67
2022/02/15 06:59:05;;;;;;;4.13;2.03;;;7.30;85.10;;;;;;5107949;27;20050;-68
2022/02/15 07:01:40;;;;;;;5.60;2.35;;;7.30;85.10;;;;;;5114444;27;20134;-68
2022/02/15 07:04:12;;;;;;;6.38;2.03;;;7.30;85.10;;;;;;5103729;27;20047;-67
2022/02/15 07:06:40;;;;;;;4.55;1.95;;;7.30;85.20;;;;;;5102108;27;20050;-67
2022/02/15 07:09:11;;;;;;;3.35;1.83;;;7.30;85.10;;;;;;5111338;27;20099;-69
2022/02/15 07:11:55;;;;;;;3.08;1.63;;;7.40;85.00;;;;;;5097837;27;20058;-69
2022/02/15 07:14:23;;;;;;;5.47;2.08;;;7.40;85.00;;;;;;5103052;27;20047;-68
2022/02/15 07:16:55;;;;;;;4.70;1.73;;;7.40;85.00;;;;;;5101926;27;20499;-70
2022/02/15 07:19:29;;;;;;;3.80;1.80;;;7.40;84.90;;;;;;5119780;27;20051;-68
2022/02/15 07:22:22;;;;;;;3.70;1.52;;;7.40;84.90;;;;;;5120570;27;20761;-68
2022/02/15 07:25:06;;;;;;;4.75;1.80;;;7.40;85.10;;;;;;5103153;27;20047;-68
2022/02/15 07:27:44;;;;;;;5.68;1.65;;;7.40;85.10;;;;;;5111648;27;20046;-69
2022/02/15 07:30:15;;;;;;;3.70;1.60;;;7.40;85.10;;;;;;5101835;27;20043;-68
2022/02/15 07:32:57;;;;;;;9.40;2.70;;;7.40;85.20;;;;;;5112143;27;20062;-68
2022/02/15 07:35:26;;;;;;;5.00;1.92;;;7.40;85.10;;;;;;5105881;27;20496;-68
2022/02/15 07:37:53;;;;;;;6.90;2.03;;;7.40;85.20;;;;;;5116656;27;20817;-67
2022/02/15 07:40:21;;;;;;;4.25;2.05;;;7.40;85.10;;;;;;5117607;27;21628;-68
2022/02/15 07:42:50;;;;;;;6.60;2.35;;;7.40;85.20;;;;;;5117712;27;20383;-68
2022/02/15 07:45:18;;;;;;;3.80;1.95;;;7.40;85.20;;;;;;5124511;27;20046;-66
2022/02/15 07:47:47;;;;;;;4.45;2.25;;;7.40;85.30;;;;;;5126512;27;20400;-69
2022/02/15 07:50:15;;;;;;;5.97;2.58;;;7.40;85.30;;;;;;5127118;27;20038;-68
2022/02/15 07:52:47;;;;;;;7.28;2.60;;;7.40;85.30;;;;;;5123346;27;20599;-69
2022/02/15 07:55:15;;;;;;;5.25;2.47;;;7.40;85.20;;;;;;5127245;27;20646;-70
2022/02/15 07:57:42;;;;;;;5.40;2.03;;;7.40;85.30;;;;;;5121611;27;20161;-68
2022/02/15 08:00:10;;;;;;;9.07;2.33;;;7.40;85.30;;;;;;5113298;27;20070;-69
2022/02/15 08:02:40;;;;;;;6.65;2.45;;;7.40;85.30;;;;;;5121220;27;20181;-68
2022/02/15 08:05:08;;;;;;;5.20;2.28;;;7.50;85.20;;;;;;5114184;27;20046;-68
2022/02/15 08:07:38;;;;;;;4.53;2.42;;;7.50;85.20;;;;;;5106941;27;20054;-68
2022/02/15 08:10:08;;;;;;;5.43;2.60;;;7.50;85.20;;;;;;5126795;27;20050;-69
2022/02/15 08:12:36;;;;;;;5.32;2.70;;;7.50;85.20;;;;;;5119532;27;20456;-69
2022/02/15 08:15:03;;;;;;;8.38;2.65;;;7.50;85.20;;;;;;5118896;27;20051;-67
2022/02/15 08:17:31;;;;;;;5.63;2.92;;;7.50;85.30;;;;;;5106023;27;20055;-68
2022/02/15 08:19:58;;;;;;;7.10;2.50;;;7.50;85.30;;;;;;5123819;27;20088;-68
2022/02/15 08:22:25;;;;;;;5.85;2.45;;;7.50;85.30;;;;;;5124160;27;20047;-70
2022/02/15 08:24:53;;;;;;;5.55;2.28;;;7.50;85.30;;;;;;5121658;27;20039;-67
2022/02/15 08:27:21;;;;;;;5.60;2.75;;;7.50;85.40;;;;;;5113853;27;20071;-67
2022/02/15 08:29:48;;;;;;;5.95;2.55;;;7.50;85.40;;;;;;5119560;27;20079;-68
2022/02/15 08:32:16;;;;;;;4.95;2.95;;;7.50;85.40;;;;;;5118452;27;20054;-69
2022/02/15 08:34:43;;;;;;;6.80;2.90;;;7.50;85.30;;;;;;5118124;27;20168;-67
2022/02/15 08:37:11;;;;;;;5.57;2.90;;;7.50;85.40;;;;;;5120223;27;20138;-68
2022/02/15 08:39:38;;;;;;;7.10;3.10;;;7.50;85.30;;;;;;5121276;27;20175;-68
2022/02/15 08:42:05;;;;;;;7.45;3.22;;;7.60;85.30;;;;;;5125799;27;22320;-68
2022/02/15 08:44:35;;;;;;;7.00;3.45;;;7.60;85.30;;;;;;5128282;27;20054;-69
2022/02/15 08:47:05;;;;;;;6.93;2.95;;;7.60;85.40;;;;;;5125897;27;20051;-68
2022/02/15 08:49:33;;;;;;;7.63;3.17;;;7.60;85.30;;;;;;5120699;27;20626;-68
2022/02/15 08:52:01;;;;;;;6.70;2.97;;;7.60;85.30;;;;;;5126784;27;20149;-68
2022/02/15 08:54:30;;;;;;;6.93;3.50;;;7.60;85.30;;;;;;5123917;27;20047;-68
2022/02/15 08:56:58;;;;;;;6.28;2.63;;;7.60;85.30;;;;;;5126544;27;20076;-69
2022/02/15 08:59:25;;;;;;;8.27;3.60;;;7.70;85.20;;;;;;5122988;27;20605;-68
2022/02/15 09:01:53;;;;;;;6.45;3.60;;;7.70;85.20;;;;;;5112861;27;20039;-71
2022/02/15 09:04:21;;;;;;;8.55;3.60;;;7.70;85.20;;;;;;5114197;27;20069;-71
2022/02/15 09:06:48;;;;;;;8.63;3.97;;;7.70;85.20;;;;;;5125468;27;20606;-70
2022/02/15 09:09:15;;;;;;;8.23;3.15;;;7.70;85.30;;;;;;5126466;27;20061;-72
2022/02/15 09:11:43;;;;;;;8.68;3.35;;;7.70;85.00;;;;;;5116696;27;20055;-71
2022/02/15 09:14:11;;;;;;;6.30;3.00;;;7.70;85.00;;;;;;5125941;27;20066;-70
2022/02/15 09:16:38;;;;;;;7.70;3.10;;;7.70;85.00;;;;;;5126676;27;20099;-71
2022/02/15 09:19:07;;;;;;;11.55;3.50;;;7.70;85.00;;;;;;5130051;27;20039;-70
2022/02/15 09:21:35;;;;;;;9.98;3.90;;;7.70;84.90;;;;;;5130149;27;20042;-70
2022/02/15 09:24:02;;;;;;;9.57;3.17;;;7.70;84.90;;;;;;5129478;27;20050;-69
2022/02/15 09:26:29;;;;;;;4.78;2.88;;;7.70;84.90;;;;;;5124104;27;20027;-70
2022/02/15 09:29:01;;;;;;;7.53;3.40;;;7.70;84.80;;;;;;5134891;27;20127;-70
2022/02/15 09:31:28;;;;;;;5.35;2.58;;;7.70;84.80;;;;;;5132041;27;20050;-71
2022/02/15 09:33:55;;;;;;;5.47;2.38;;;7.80;84.70;;;;;;5117298;27;20047;-70
2022/02/15 09:36:25;;;;;;;6.25;2.88;;;7.80;84.70;;;;;;5127993;27;20158;-70
2022/02/15 09:38:56;;;;;;;6.65;3.05;;;7.80;84.70;;;;;;5131709;27;20585;-70
2022/02/15 09:41:23;;;;;;;5.00;2.65;;;7.70;84.80;;;;;;5129735;27;20059;-70
2022/02/15 09:43:51;;;;;;;5.47;2.63;;;7.70;84.90;;;;;;5129148;27;20039;-71
2022/02/15 09:46:22;;;;;;;5.32;3.05;;;7.70;85.10;;;;;;5127881;27;20068;-70
2022/02/15 09:48:51;;;;;;;;;;;7.70;85.20;;;;;;5130031;27;20053;-71
2022/02/15 09:51:21;;;;;;;4.07;2.15;;;7.70;85.30;;;;;;5130688;27;20000;-69
2022/02/15 09:53:50;;;;;;;8.38;3.22;;;7.70;85.40;;;;;;5130424;27;20063;-70
2022/02/15 09:56:18;;;;;;;5.72;3.00;;;7.70;85.60;;;;;;5130911;27;20495;-70
2022/02/15 09:58:45;;;;;;;6.65;3.35;;;7.80;85.50;;;;;;5129906;27;20300;-73
2022/02/15 10:01:13;;;;;;;4.70;2.72;;;7.80;85.60;;;;;;5128180;27;20564;-71
2022/02/15 10:03:49;;;;;;;5.63;2.92;;;7.80;85.50;;;;;;5127929;27;20332;-71
2022/02/15 10:06:16;;;;;;;5.40;2.25;;;7.90;85.50;;;;;;5128500;27;20092;-72
2022/02/15 10:08:43;;;;;;;5.80;3.05;;;7.90;85.40;;;;;;5127779;27;20130;-71
2022/02/15 10:11:14;;;;;;;5.20;2.28;;;7.90;85.40;;;;;;5130283;27;20039;-70
2022/02/15 10:13:43;;;;;;;3.92;2.42;;;7.90;85.40;;;;;;5128699;27;20042;-71
2022/02/15 10:16:11;;;;;;;4.28;2.35;;;7.90;85.40;;;;;;5114079;27;20573;-71
2022/02/15 10:18:39;;;;;;;5.18;2.28;;;8.00;85.50;;;;;;5129634;27;20050;-71
2022/02/15 10:21:10;;;;;;;5.30;2.92;;;8.00;85.50;;;;;;5132306;27;21554;-71
2022/02/15 10:23:37;;;;;;;4.70;2.58;;;8.00;85.40;;;;;;5129135;27;20242;-70
2022/02/15 10:26:09;;;;;;;7.40;3.35;;;8.00;85.60;;;;;;5121493;27;20042;-71
2022/02/15 10:28:40;;;;;;;6.28;3.03;;;8.10;85.60;;;;;;5129871;27;20046;-70
2022/02/15 10:31:08;;;;;;;5.93;3.50;;;8.10;85.60;;;;;;5130976;27;20107;-71
2022/02/15 10:33:37;;;;;;;6.00;3.25;;;8.20;85.70;;;;;;5128720;27;20043;-72
2022/02/15 10:36:06;;;;;;;7.50;3.50;;;8.20;85.60;;;;;;5110502;27;20035;-71
2022/02/15 10:38:36;;;;;;;7.32;3.95;;;8.30;85.60;;;;;;5129393;27;20078;-72
2022/02/15 10:41:05;;;;;;;9.30;4.00;;;8.40;85.40;;;;;;5130128;27;20100;-70
2022/02/15 10:43:44;;;;;;;6.32;3.58;;;8.50;85.20;;;;;;5131874;27;20481;-70
2022/02/15 10:46:12;;;;;;;8.18;3.70;;;8.60;85.00;;;;;;5130466;27;20467;-69
2022/02/15 10:48:40;;;;;;;5.43;3.22;;;8.70;84.90;;;;;;5124193;27;20404;-71
2022/02/15 10:51:08;;;;;;;8.73;3.72;;;8.70;84.40;;;;;;5109415;27;20817;-72
2022/02/15 10:53:36;;;;;;;6.50;3.40;;;8.70;84.10;;;;;;5110192;27;20093;-73
2022/02/15 10:56:04;;;;;;;5.85;3.47;;;8.70;84.00;;;;;;5124218;27;20718;-72
2022/02/15 10:58:32;;;;;;;4.63;2.58;;;8.70;83.70;;;;;;5130124;27;20310;-70
2022/02/15 11:01:07;;;;;;;4.90;2.60;;;8.70;82.80;;;;;;5126265;27;20055;-70
2022/02/15 11:03:36;;;;;;;8.63;2.90;;;8.70;83.00;;;;;;5130621;27;20104;-71
2022/02/15 11:06:05;;;;;;;5.93;2.42;;;8.70;83.10;;;;;;5132423;27;20112;-72
2022/02/15 11:08:34;;;;;;;5.03;1.80;;;8.60;82.90;;;;;;5131622;27;20099;-70
2022/02/15 11:11:07;;;;;;;5.47;2.60;;;8.60;82.60;;;;;;5132916;27;20098;-70
2022/02/15 11:13:39;;;;;;;4.82;2.20;;;8.60;82.40;;;;;;5121658;27;20131;-71
2022/02/15 11:16:14;;;;;;;5.75;2.20;;;8.60;82.70;;;;;;5133282;27;20046;-70
2022/02/15 11:18:42;;;;;;;4.05;2.40;;;8.60;82.30;;;;;;5130232;27;20415;-71
2022/02/15 11:21:21;;;;;;;3.80;2.40;;;8.60;82.60;;;;;;5125495;27;20042;-70
2022/02/15 11:23:58;;;;;;;6.60;2.92;;;8.50;82.40;;;;;;5118272;27;20217;-69
2022/02/15 11:26:33;;;;;;;5.20;2.63;;;8.40;82.30;;;;;;5121810;27;20051;-70
2022/02/15 11:29:01;;;;;;;5.65;2.40;;;8.40;82.40;;;;;;5130064;27;20045;-70
2022/02/15 11:31:32;;;;;;;6.22;2.70;;;8.40;82.50;;;;;;5130970;27;20173;-73
2022/02/15 11:34:04;;;;;;;4.30;2.28;;;8.40;82.50;;;;;;5128704;27;20553;-70
2022/02/15 11:36:32;;;;;;;4.93;1.83;;;8.40;82.70;;;;;;5130035;27;20118;-72
2022/02/15 11:39:01;;;;;;;6.15;2.08;;;8.30;83.00;;;;;;5130891;27;20046;-71
2022/02/15 11:41:46;;;;;;;4.40;2.15;;;8.30;83.10;;;;;;5118891;27;20050;-70
2022/02/15 11:44:15;;;;;;;4.38;2.00;;;8.30;83.40;;;;;;5110175;27;20481;-69
2022/02/15 11:46:47;;;;;;;5.43;2.10;;;8.40;83.50;;;;;;5130635;27;20772;-71
2022/02/15 11:49:15;;;;;;;3.65;1.67;;;8.40;83.50;;;;;;5121633;27;20402;-72
2022/02/15 11:51:46;;;;;;;5.13;1.90;;;8.40;83.40;;;;;;5126220;27;20038;-71
2022/02/15 11:54:15;;;;;;;3.97;1.70;;;8.50;83.50;;;;;;5127839;27;20096;-71
2022/02/15 11:56:46;;;;;;;4.43;1.75;;;8.60;83.60;;;;;;5127919;27;20098;-71
2022/02/15 11:59:19;;;;;;;3.85;1.90;;;8.60;83.70;;;;;;5129114;27;20042;-70
2022/02/15 12:01:58;;;;;;;4.70;1.95;;;8.60;83.90;;;;;;5128624;27;20062;-71
2022/02/15 12:04:26;;;;;;;3.83;1.60;;;8.70;83.80;;;;;;5130986;27;20047;-70
2022/02/15 12:06:54;;;;;;;6.35;2.00;;;8.70;83.70;;;;;;5117489;27;20425;-69
2022/02/15 12:09:28;;;;;;;6.35;2.20;;;8.70;83.40;;;;;;5127153;27;20092;-70
2022/02/15 12:11:56;;;;;;;6.07;2.33;;;8.70;83.50;;;;;;5126526;27;20043;-70
2022/02/15 12:14:25;;;;;;;4.47;2.28;;;8.70;83.40;;;;;;5128910;27;20043;-71
2022/02/15 12:16:56;;;;;;;4.38;2.20;;;8.60;83.50;;;;;;5127986;27;20047;-71
2022/02/15 12:19:26;;;;;;;4.05;2.10;;;8.70;83.60;;;;;;5127279;27;20476;-70
2022/02/15 12:21:54;;;;;;;4.00;1.92;;;8.70;83.60;;;;;;5126312;27;20055;-71
2022/02/15 12:24:21;;;;;;;5.57;2.67;;;8.70;83.70;;;;;;5127111;27;20042;-72
2022/02/15 12:26:57;;;;;;;5.30;2.42;;;8.70;83.70;;;;;;5130644;27;20129;-71
2022/02/15 12:29:31;;;;;;;4.45;2.08;;;8.70;83.80;;;;;;5129167;27;20061;-70
2022/02/15 12:32:01;;;;;;;5.00;2.42;;;8.70;84.00;;;;;;5129167;27;20046;-71
2022/02/15 12:34:30;;;;;;;6.53;2.33;;;8.80;83.60;;;;;;5126280;27;20092;-71
2022/02/15 12:36:58;;;;;;;4.47;2.08;;;8.70;83.10;;;;;;5128952;27;20786;-71
2022/02/15 12:39:33;;;;;;;4.35;2.15;;;8.70;82.70;;;;;;5127646;27;20130;-70
2022/02/15 12:42:03;;;;;;;6.55;2.17;;;8.70;82.60;;;;;;5128545;27;20082;-71
2022/02/15 12:44:33;;;;;;;5.10;2.20;;;8.70;82.40;;;;;;5126249;27;20122;-72
2022/02/15 12:47:01;;;;;;;4.95;1.98;;;8.70;82.20;;;;;;5126417;27;20049;-71
2022/02/15 12:49:28;;;;;;;4.07;1.83;;;8.70;82.20;;;;;;5124899;27;20075;-70
2022/02/15 12:51:57;;;;;;;2.50;1.20;;;8.80;82.00;;;;;;5127364;27;20043;-70
2022/02/15 12:54:25;;;;;;;3.08;1.30;;;8.80;82.00;;;;;;5124673;27;20050;-70
2022/02/15 12:56:53;;;;;;;3.10;1.50;;;8.90;81.90;;;;;;5127362;27;20361;-70
2022/02/15 12:59:23;;;;;;;3.00;1.45;;;8.90;81.80;;;;;;5125047;27;20057;-70
2022/02/15 13:01:59;;;;;;;3.95;1.30;;;9.00;81.70;;;;;;5123958;27;20050;-72
2022/02/15 13:04:31;;;;;;;3.42;1.40;;;9.10;81.30;;;;;;5108692;27;20565;-70
2022/02/15 13:06:58;;;;;;;4.90;1.33;;;9.10;81.10;;;;;;5114771;27;20055;-70
2022/02/15 13:09:30;;;;;;;2.88;1.23;;;9.10;80.80;;;;;;5123263;27;20192;-71
2022/02/15 13:12:01;;;;;;;3.13;1.20;;;9.10;80.70;;;;;;5127147;27;20051;-71
2022/02/15 13:14:30;;;;;;;3.08;1.45;;;9.20;80.20;;;;;;5129231;27;20047;-70
2022/02/15 13:17:02;;;;;;;2.83;1.35;;;9.10;79.90;;;;;;5120338;27;20046;-71
2022/02/15 13:19:38;;;;;;;4.35;1.60;;;9.10;80.00;;;;;;5128366;27;20464;-71
2022/02/15 13:22:10;;;;;;;2.92;1.55;;;9.10;79.90;;;;;;5102418;27;20047;-71